sensor_id;sensor_type;location;lat;lon;timestamp;P1;durP1;ratioP1;P2;durP2;ratioP2
38252;SDS011;24785;52.372;20.672;2023-06-22T00:00:19;25.52;;;18.42;;
38252;SDS011;24785;52.372;20.672;2023-06-22T00:20:43;25.83;;;19.67;;
38252;SDS011;24785;52.372;20.672;2023-06-22T00:30:48;23.35;;;17.65;;
38252;SDS011;24785;52.372;20.672;2023-06-22T00:40:49;21.33;;;16.80;;
38252;SDS011;24785;52.372;20.672;2023-06-22T00:50:50;22.90;;;18.23;;
38252;SDS011;24785;52.372;20.672;2023-06-22T01:00:54;22.83;;;18.05;;
38252;SDS011;24785;52.372;20.672;2023-06-22T01:10:57;16.88;;;13.75;;
38252;SDS011;24785;52.372;20.672;2023-06-22T01:21:16;19.00;;;15.43;;
38252;SDS011;24785;52.372;20.672;2023-06-22T01:31:22;20.45;;;16.55;;
38252;SDS011;24785;52.372;20.672;2023-06-22T01:41:25;25.70;;;17.75;;
38252;SDS011;24785;52.372;20.672;2023-06-22T01:51:28;26.05;;;18.80;;
38252;SDS011;24785;52.372;20.672;2023-06-22T02:01:31;24.60;;;17.75;;
38252;SDS011;24785;52.372;20.672;2023-06-22T02:11:40;37.85;;;21.95;;
38252;SDS011;24785;52.372;20.672;2023-06-22T02:21:43;30.80;;;21.65;;
38252;SDS011;24785;52.372;20.672;2023-06-22T02:31:43;32.45;;;21.40;;
38252;SDS011;24785;52.372;20.672;2023-06-22T02:41:44;30.58;;;21.02;;
38252;SDS011;24785;52.372;20.672;2023-06-22T02:51:46;41.00;;;26.00;;
38252;SDS011;24785;52.372;20.672;2023-06-22T03:01:48;47.47;;;29.75;;
38252;SDS011;24785;52.372;20.672;2023-06-22T03:11:50;41.65;;;26.77;;
38252;SDS011;24785;52.372;20.672;2023-06-22T03:21:51;38.92;;;25.60;;
38252;SDS011;24785;52.372;20.672;2023-06-22T03:31:52;36.17;;;24.48;;
38252;SDS011;24785;52.372;20.672;2023-06-22T03:41:53;30.73;;;20.15;;
38252;SDS011;24785;52.372;20.672;2023-06-22T03:51:54;26.98;;;17.33;;
38252;SDS011;24785;52.372;20.672;2023-06-22T04:01:55;25.67;;;16.13;;
38252;SDS011;24785;52.372;20.672;2023-06-22T04:11:55;24.23;;;15.20;;
38252;SDS011;24785;52.372;20.672;2023-06-22T04:21:56;21.60;;;14.00;;
38252;SDS011;24785;52.372;20.672;2023-06-22T04:31:57;24.63;;;14.47;;
38252;SDS011;24785;52.372;20.672;2023-06-22T04:41:59;21.40;;;14.47;;
38252;SDS011;24785;52.372;20.672;2023-06-22T04:52:06;20.70;;;12.93;;
38252;SDS011;24785;52.372;20.672;2023-06-22T05:02:08;16.10;;;11.73;;
38252;SDS011;24785;52.372;20.672;2023-06-22T05:22:10;22.10;;;11.38;;
38252;SDS011;24785;52.372;20.672;2023-06-22T05:32:12;15.60;;;11.07;;
38252;SDS011;24785;52.372;20.672;2023-06-22T05:42:13;17.07;;;9.90;;
38252;SDS011;24785;52.372;20.672;2023-06-22T05:52:15;14.50;;;9.63;;
38252;SDS011;24785;52.372;20.672;2023-06-22T06:02:15;12.93;;;9.90;;
38252;SDS011;24785;52.372;20.672;2023-06-22T06:12:16;16.53;;;8.13;;
38252;SDS011;24785;52.372;20.672;2023-06-22T06:22:18;11.10;;;7.33;;
38252;SDS011;24785;52.372;20.672;2023-06-22T06:32:19;13.57;;;6.28;;
38252;SDS011;24785;52.372;20.672;2023-06-22T06:42:20;10.00;;;5.03;;
38252;SDS011;24785;52.372;20.672;2023-06-22T06:52:23;8.27;;;4.13;;
38252;SDS011;24785;52.372;20.672;2023-06-22T07:02:25;8.97;;;5.10;;
38252;SDS011;24785;52.372;20.672;2023-06-22T07:12:29;8.30;;;5.47;;
38252;SDS011;24785;52.372;20.672;2023-06-22T07:22:30;8.90;;;4.40;;
38252;SDS011;24785;52.372;20.672;2023-06-22T07:32:32;11.93;;;4.47;;
38252;SDS011;24785;52.372;20.672;2023-06-22T07:42:33;13.83;;;4.30;;
38252;SDS011;24785;52.372;20.672;2023-06-22T07:52:34;11.10;;;4.17;;
38252;SDS011;24785;52.372;20.672;2023-06-22T08:02:35;7.53;;;3.37;;
38252;SDS011;24785;52.372;20.672;2023-06-22T08:12:36;6.57;;;3.13;;
38252;SDS011;24785;52.372;20.672;2023-06-22T08:22:37;5.83;;;3.03;;
38252;SDS011;24785;52.372;20.672;2023-06-22T08:32:38;5.50;;;2.80;;
38252;SDS011;24785;52.372;20.672;2023-06-22T08:42:40;7.03;;;3.03;;
38252;SDS011;24785;52.372;20.672;2023-06-22T08:52:42;6.22;;;3.50;;
38252;SDS011;24785;52.372;20.672;2023-06-22T09:02:43;8.17;;;3.60;;
38252;SDS011;24785;52.372;20.672;2023-06-22T09:12:44;6.30;;;3.10;;
38252;SDS011;24785;52.372;20.672;2023-06-22T09:22:46;7.73;;;3.30;;
38252;SDS011;24785;52.372;20.672;2023-06-22T09:32:46;5.93;;;3.70;;
38252;SDS011;24785;52.372;20.672;2023-06-22T09:42:47;11.93;;;3.30;;
38252;SDS011;24785;52.372;20.672;2023-06-22T09:52:48;11.10;;;4.00;;
38252;SDS011;24785;52.372;20.672;2023-06-22T10:02:55;6.82;;;3.40;;
38252;SDS011;24785;52.372;20.672;2023-06-22T10:13:07;7.30;;;3.75;;
38252;SDS011;24785;52.372;20.672;2023-06-22T10:23:11;6.78;;;4.07;;
38252;SDS011;24785;52.372;20.672;2023-06-22T10:33:12;8.40;;;3.57;;
38252;SDS011;24785;52.372;20.672;2023-06-22T10:43:13;6.55;;;3.70;;
38252;SDS011;24785;52.372;20.672;2023-06-22T10:53:14;5.32;;;3.50;;
38252;SDS011;24785;52.372;20.672;2023-06-22T11:03:15;7.30;;;3.40;;
38252;SDS011;24785;52.372;20.672;2023-06-22T11:13:16;7.40;;;3.88;;
38252;SDS011;24785;52.372;20.672;2023-06-22T11:23:17;5.88;;;3.45;;
38252;SDS011;24785;52.372;20.672;2023-06-22T11:33:18;5.65;;;3.65;;
38252;SDS011;24785;52.372;20.672;2023-06-22T11:43:19;8.77;;;3.80;;
38252;SDS011;24785;52.372;20.672;2023-06-22T11:53:20;4.97;;;3.42;;
38252;SDS011;24785;52.372;20.672;2023-06-22T12:03:22;6.95;;;3.78;;
38252;SDS011;24785;52.372;20.672;2023-06-22T12:13:23;12.57;;;3.97;;
38252;SDS011;24785;52.372;20.672;2023-06-22T12:33:25;7.23;;;3.87;;
38252;SDS011;24785;52.372;20.672;2023-06-22T12:43:26;7.78;;;3.53;;
38252;SDS011;24785;52.372;20.672;2023-06-22T13:03:28;6.50;;;3.37;;
38252;SDS011;24785;52.372;20.672;2023-06-22T13:23:29;4.87;;;2.90;;
38252;SDS011;24785;52.372;20.672;2023-06-22T13:33:31;5.18;;;3.05;;
38252;SDS011;24785;52.372;20.672;2023-06-22T13:53:33;5.27;;;3.30;;
38252;SDS011;24785;52.372;20.672;2023-06-22T14:03:34;6.45;;;3.50;;
38252;SDS011;24785;52.372;20.672;2023-06-22T14:23:36;6.70;;;3.50;;
38252;SDS011;24785;52.372;20.672;2023-06-22T14:33:38;6.72;;;4.00;;
38252;SDS011;24785;52.372;20.672;2023-06-22T14:43:43;5.43;;;3.85;;
38252;SDS011;24785;52.372;20.672;2023-06-22T14:53:45;6.32;;;4.55;;
38252;SDS011;24785;52.372;20.672;2023-06-22T15:03:47;6.18;;;3.58;;
38252;SDS011;24785;52.372;20.672;2023-06-22T15:13:47;7.70;;;4.38;;
38252;SDS011;24785;52.372;20.672;2023-06-22T15:23:49;8.57;;;3.72;;
38252;SDS011;24785;52.372;20.672;2023-06-22T15:33:49;6.85;;;3.83;;
38252;SDS011;24785;52.372;20.672;2023-06-22T15:43:50;24.77;;;5.43;;
38252;SDS011;24785;52.372;20.672;2023-06-22T15:53:52;7.15;;;4.32;;
38252;SDS011;24785;52.372;20.672;2023-06-22T16:13:54;7.20;;;4.47;;
38252;SDS011;24785;52.372;20.672;2023-06-22T16:33:55;6.00;;;3.60;;
38252;SDS011;24785;52.372;20.672;2023-06-22T16:43:57;7.30;;;3.90;;
38252;SDS011;24785;52.372;20.672;2023-06-22T16:54:03;6.38;;;4.07;;
38252;SDS011;24785;52.372;20.672;2023-06-22T17:04:08;7.82;;;3.75;;
38252;SDS011;24785;52.372;20.672;2023-06-22T17:14:11;7.28;;;4.55;;
38252;SDS011;24785;52.372;20.672;2023-06-22T17:24:12;7.00;;;3.58;;
38252;SDS011;24785;52.372;20.672;2023-06-22T17:34:16;5.97;;;3.70;;
38252;SDS011;24785;52.372;20.672;2023-06-22T17:44:24;5.07;;;3.40;;
38252;SDS011;24785;52.372;20.672;2023-06-22T17:54:30;7.60;;;3.70;;
38252;SDS011;24785;52.372;20.672;2023-06-22T18:04:31;9.00;;;4.20;;
38252;SDS011;24785;52.372;20.672;2023-06-22T18:14:32;7.00;;;4.00;;
38252;SDS011;24785;52.372;20.672;2023-06-22T18:24:34;7.93;;;3.65;;
38252;SDS011;24785;52.372;20.672;2023-06-22T18:34:35;9.50;;;3.80;;
38252;SDS011;24785;52.372;20.672;2023-06-22T18:44:39;9.37;;;4.00;;
38252;SDS011;24785;52.372;20.672;2023-06-22T18:54:42;10.20;;;4.20;;
38252;SDS011;24785;52.372;20.672;2023-06-22T19:04:43;9.52;;;4.57;;
38252;SDS011;24785;52.372;20.672;2023-06-22T19:15:02;22.55;;;6.30;;
38252;SDS011;24785;52.372;20.672;2023-06-22T19:25:25;25.95;;;6.15;;
38252;SDS011;24785;52.372;20.672;2023-06-22T19:35:27;12.77;;;5.18;;
38252;SDS011;24785;52.372;20.672;2023-06-22T19:45:29;12.35;;;6.13;;
38252;SDS011;24785;52.372;20.672;2023-06-22T19:55:32;11.77;;;5.65;;
38252;SDS011;24785;52.372;20.672;2023-06-22T20:05:33;9.82;;;5.53;;
38252;SDS011;24785;52.372;20.672;2023-06-22T20:15:41;14.00;;;5.57;;
38252;SDS011;24785;52.372;20.672;2023-06-22T20:25:43;15.57;;;7.50;;
38252;SDS011;24785;52.372;20.672;2023-06-22T20:35:46;21.90;;;8.88;;
38252;SDS011;24785;52.372;20.672;2023-06-22T20:45:51;16.95;;;8.40;;
38252;SDS011;24785;52.372;20.672;2023-06-22T20:55:54;32.90;;;13.63;;
38252;SDS011;24785;52.372;20.672;2023-06-22T21:05:55;16.10;;;9.30;;
38252;SDS011;24785;52.372;20.672;2023-06-22T21:15:57;22.13;;;8.80;;
38252;SDS011;24785;52.372;20.672;2023-06-22T21:25:58;16.58;;;8.82;;
38252;SDS011;24785;52.372;20.672;2023-06-22T21:35:59;21.13;;;9.48;;
38252;SDS011;24785;52.372;20.672;2023-06-22T21:46:00;19.83;;;9.10;;
38252;SDS011;24785;52.372;20.672;2023-06-22T21:56:01;20.55;;;8.15;;
38252;SDS011;24785;52.372;20.672;2023-06-22T22:06:02;16.98;;;8.93;;
38252;SDS011;24785;52.372;20.672;2023-06-22T22:16:03;19.02;;;8.32;;
38252;SDS011;24785;52.372;20.672;2023-06-22T22:26:06;21.23;;;11.13;;
38252;SDS011;24785;52.372;20.672;2023-06-22T22:36:07;17.33;;;10.30;;
38252;SDS011;24785;52.372;20.672;2023-06-22T22:46:10;18.45;;;10.13;;
38252;SDS011;24785;52.372;20.672;2023-06-22T22:56:11;14.27;;;8.40;;
38252;SDS011;24785;52.372;20.672;2023-06-22T23:06:12;15.38;;;8.35;;
38252;SDS011;24785;52.372;20.672;2023-06-22T23:16:13;14.40;;;8.63;;
38252;SDS011;24785;52.372;20.672;2023-06-22T23:26:14;13.38;;;7.18;;
38252;SDS011;24785;52.372;20.672;2023-06-22T23:36:15;15.95;;;8.70;;
38252;SDS011;24785;52.372;20.672;2023-06-22T23:46:17;15.00;;;7.80;;
38252;SDS011;24785;52.372;20.672;2023-06-22T23:56:20;13.38;;;8.20;;
